createdAt,value
2023-04-23T00:01:40.497Z,83.39
2023-04-23T00:04:08.744Z,83.09
2023-04-23T00:06:35.590Z,83.19
2023-04-23T00:09:03.899Z,83.63
2023-04-23T00:11:30.557Z,85.14
2023-04-23T00:13:57.125Z,85.41
2023-04-23T00:16:24.608Z,84.43
2023-04-23T00:18:51.282Z,83.96
2023-04-23T00:21:17.912Z,84.58
2023-04-23T00:23:44.338Z,84.21
2023-04-23T00:26:10.868Z,84.27
2023-04-23T00:28:37.327Z,84.74
2023-04-23T00:31:03.832Z,84.20
2023-04-23T00:33:30.595Z,85.15
2023-04-23T00:35:57.048Z,85.96
2023-04-23T00:38:23.528Z,85.53
2023-04-23T00:40:50.093Z,86.35
2023-04-23T00:43:17.626Z,86.21
2023-04-23T00:45:44.401Z,85.94
2023-04-23T00:48:11.824Z,85.30
2023-04-23T00:50:38.339Z,86.68
2023-04-23T00:53:04.801Z,87.13
2023-04-23T00:55:31.412Z,86.50
2023-04-23T00:57:57.889Z,86.37
2023-04-23T01:00:24.382Z,86.91
2023-04-23T01:02:53.027Z,87.11
2023-04-23T01:05:19.865Z,87.18
2023-04-23T01:07:47.085Z,87.34
2023-04-23T01:10:13.990Z,87.96
2023-04-23T01:12:41.721Z,88.30
2023-04-23T01:15:08.861Z,87.67
2023-04-23T01:17:35.510Z,87.41
2023-04-23T01:20:02.053Z,87.11
2023-04-23T01:22:28.695Z,86.71
2023-04-23T01:24:55.280Z,86.71
2023-04-23T01:27:22.312Z,86.58
2023-04-23T01:29:49.320Z,86.81
2023-04-23T01:32:17.832Z,87.37
2023-04-23T01:34:46.392Z,87.03
2023-04-23T01:37:13.845Z,87.88
2023-04-23T01:39:40.401Z,88.06
2023-04-23T01:42:07.313Z,87.23
2023-04-23T01:44:33.990Z,87.51
2023-04-23T01:47:00.489Z,88.48
2023-04-23T01:49:27.277Z,88.35
2023-04-23T01:51:53.761Z,88.10
2023-04-23T01:54:20.317Z,88.25
2023-04-23T01:56:49.872Z,89.10
2023-04-23T01:59:16.380Z,89.83
2023-04-23T02:01:46.863Z,90.24
2023-04-23T02:04:14.526Z,90.54
2023-04-23T02:06:42.176Z,89.91
2023-04-23T02:09:08.672Z,89.58
2023-04-23T02:11:35.211Z,90.38
2023-04-23T02:14:02.246Z,90.54
2023-04-23T02:16:29.460Z,90.94
2023-04-23T02:18:55.987Z,90.84
2023-04-23T02:21:24.330Z,90.00
2023-04-23T02:23:51.420Z,90.66
2023-04-23T02:26:18.857Z,90.66
2023-04-23T02:28:48.529Z,91.48
2023-04-23T02:31:16.604Z,91.92
2023-04-23T02:33:43.497Z,91.39
2023-04-23T02:36:11.708Z,90.80
2023-04-23T02:38:41.445Z,90.34
2023-04-23T02:41:08.307Z,90.62
2023-04-23T02:43:34.825Z,91.36
2023-04-23T02:46:07.939Z,91.29
2023-04-23T02:48:38.585Z,91.14
2023-04-23T02:51:06.455Z,91.12
2023-04-23T02:53:33.280Z,90.98
2023-04-23T02:56:00.146Z,91.30
2023-04-23T02:58:26.911Z,90.84
2023-04-23T03:00:56.235Z,90.72
2023-04-23T03:03:26.569Z,90.51
2023-04-23T03:05:53.302Z,90.00
2023-04-23T03:08:19.834Z,90.78
2023-04-23T03:10:46.387Z,91.34
2023-04-23T03:13:13.084Z,91.02
2023-04-23T03:15:40.737Z,91.03
2023-04-23T03:18:08.468Z,91.13
2023-04-23T03:20:36.405Z,90.53
2023-04-23T03:23:06.240Z,90.95
2023-04-23T03:25:33.305Z,90.85
2023-04-23T03:28:00.431Z,91.32
2023-04-23T03:30:28.760Z,91.72
2023-04-23T03:32:56.777Z,91.67
2023-04-23T03:35:23.941Z,91.59
2023-04-23T03:37:51.792Z,92.03
2023-04-23T03:40:20.088Z,91.97
2023-04-23T03:42:49.538Z,93.16
2023-04-23T03:45:20.234Z,92.80
2023-04-23T03:47:46.783Z,92.74
2023-04-23T03:50:13.771Z,92.34
2023-04-23T03:52:42.861Z,92.25
2023-04-23T03:55:15.684Z,92.05
2023-04-23T03:57:45.150Z,92.95
2023-04-23T04:00:23.702Z,93.06
2023-04-23T04:02:50.334Z,92.80
2023-04-23T04:05:17.055Z,92.73
2023-04-23T04:07:45.257Z,93.19
2023-04-23T04:10:11.802Z,92.47
2023-04-23T04:12:38.285Z,92.46
2023-04-23T04:15:08.756Z,92.49
2023-04-23T04:17:35.285Z,93.08
2023-04-23T04:20:01.743Z,93.00
2023-04-23T04:22:29.074Z,93.12
2023-04-23T04:24:56.187Z,92.73
2023-04-23T04:27:22.724Z,92.94
2023-04-23T04:29:49.503Z,93.27
2023-04-23T04:32:16.212Z,93.43
2023-04-23T04:34:43.081Z,94.40
2023-04-23T04:37:11.520Z,94.35
2023-04-23T04:39:38.116Z,93.75
2023-04-23T04:42:06.646Z,93.56
2023-04-23T04:44:33.100Z,93.46
2023-04-23T04:46:59.675Z,93.67
2023-04-23T04:49:26.329Z,93.97
2023-04-23T04:51:54.243Z,93.23
2023-04-23T04:54:21.816Z,93.88
2023-04-23T04:56:48.310Z,94.32
2023-04-23T04:59:14.852Z,94.21
2023-04-23T05:01:41.502Z,94.20
2023-04-23T05:04:08.338Z,94.25
2023-04-23T05:06:35.012Z,93.56
2023-04-23T05:09:01.529Z,93.58
2023-04-23T05:11:28.076Z,93.45
2023-04-23T05:13:54.592Z,93.00
2023-04-23T05:16:21.301Z,92.10
2023-04-23T05:18:47.756Z,92.12
2023-04-23T05:21:14.939Z,91.85
2023-04-23T05:23:41.361Z,91.58
2023-04-23T05:26:07.867Z,90.49
2023-04-23T05:28:34.335Z,92.56
2023-04-23T05:31:00.845Z,91.74
2023-04-23T05:33:33.550Z,91.36
2023-04-23T05:36:02.942Z,90.08
2023-04-23T05:38:29.450Z,88.93
2023-04-23T05:40:56.005Z,88.77
2023-04-23T05:43:22.486Z,87.79
2023-04-23T05:45:49.031Z,87.23
2023-04-23T05:48:15.514Z,85.22
2023-04-23T05:50:41.976Z,85.50
2023-04-23T05:53:08.480Z,86.32
2023-04-23T05:55:34.944Z,85.06
2023-04-23T05:58:02.413Z,83.20
2023-04-23T06:00:29.052Z,83.86
2023-04-23T06:02:55.665Z,83.32
2023-04-23T06:05:22.363Z,79.44
2023-04-23T06:07:49.019Z,78.84
2023-04-23T06:10:15.516Z,75.27
2023-04-23T06:12:42.333Z,73.48
2023-04-23T06:15:09.514Z,74.19
2023-04-23T06:17:36.407Z,74.44
2023-04-23T06:20:05.005Z,69.93
2023-04-23T06:22:32.510Z,72.44
2023-04-23T06:24:59.041Z,73.44
2023-04-23T06:27:26.976Z,71.77
2023-04-23T06:29:57.672Z,67.82
2023-04-23T06:32:24.206Z,67.48
2023-04-23T06:35:00.802Z,63.89
2023-04-23T06:37:29.694Z,61.71
2023-04-23T06:39:56.556Z,65.50
2023-04-23T06:42:23.164Z,63.30
2023-04-23T06:45:06.249Z,59.71
2023-04-23T06:47:33.038Z,63.20
2023-04-23T06:50:02.272Z,62.26
2023-04-23T06:52:28.792Z,58.74
2023-04-23T06:54:55.271Z,61.62
2023-04-23T06:57:21.923Z,60.55
2023-04-23T06:59:48.441Z,57.15
2023-04-23T07:02:16.031Z,57.83
2023-04-23T07:04:42.801Z,57.74
2023-04-23T07:07:09.510Z,55.51
2023-04-23T07:09:36.016Z,54.36
2023-04-23T07:12:03.297Z,53.25
2023-04-23T07:14:29.775Z,50.66
2023-04-23T07:16:56.273Z,52.24
2023-04-23T07:19:22.704Z,50.38
2023-04-23T07:21:49.196Z,50.78
2023-04-23T07:24:16.664Z,50.07
2023-04-23T07:26:43.135Z,52.81
2023-04-23T07:29:14.075Z,49.03
2023-04-23T07:31:42.007Z,48.23
2023-04-23T07:34:09.788Z,46.38
2023-04-23T07:36:36.593Z,47.31
2023-04-23T07:39:03.097Z,47.61
2023-04-23T07:41:29.766Z,47.05
2023-04-23T07:43:56.553Z,47.82
2023-04-23T07:46:23.049Z,47.94
2023-04-23T07:48:49.624Z,47.78
2023-04-23T07:51:16.343Z,45.27
2023-04-23T07:53:42.853Z,45.06
2023-04-23T07:56:09.316Z,45.25
2023-04-23T07:58:35.856Z,45.84
2023-04-23T08:01:02.515Z,45.85
2023-04-23T08:03:29.351Z,45.73
2023-04-23T08:05:56.859Z,46.92
2023-04-23T08:08:23.393Z,43.51
2023-04-23T08:10:49.878Z,43.52
2023-04-23T08:13:16.355Z,41.60
2023-04-23T08:15:43.055Z,41.95
2023-04-23T08:18:09.594Z,41.60
2023-04-23T08:20:36.097Z,42.18
2023-04-23T08:23:03.711Z,41.58
2023-04-23T08:25:30.282Z,44.73
2023-04-23T08:27:56.764Z,43.14
2023-04-23T08:30:23.354Z,44.49
2023-04-23T08:32:51.103Z,47.34
2023-04-23T08:35:17.864Z,44.02
2023-04-23T08:37:44.378Z,41.98
2023-04-23T08:40:11.135Z,42.61
2023-04-23T08:42:41.621Z,42.21
2023-04-23T08:45:08.373Z,42.99
2023-04-23T08:47:35.651Z,42.71
2023-04-23T08:50:04.027Z,41.67
2023-04-23T08:52:34.918Z,43.55
2023-04-23T08:55:01.930Z,41.71
2023-04-23T08:57:28.421Z,40.67
2023-04-23T08:59:55.457Z,39.13
2023-04-23T09:02:22.886Z,38.65
2023-04-23T09:04:51.428Z,38.84
2023-04-23T09:07:19.094Z,40.55
2023-04-23T09:09:45.621Z,41.35
2023-04-23T09:12:12.052Z,40.11
2023-04-23T09:14:38.475Z,39.21
2023-04-23T09:17:05.081Z,39.21
2023-04-23T09:19:31.649Z,39.23
2023-04-23T09:21:58.945Z,37.97
2023-04-23T09:24:26.160Z,38.25
2023-04-23T09:26:52.820Z,39.02
2023-04-23T09:29:21.616Z,40.28
2023-04-23T09:31:51.787Z,41.18
2023-04-23T09:34:19.234Z,40.76
2023-04-23T09:36:46.414Z,42.50
2023-04-23T09:39:16.923Z,40.59
2023-04-23T09:41:43.765Z,40.14
2023-04-23T09:44:10.306Z,40.25
2023-04-23T09:46:37.533Z,39.95
2023-04-23T09:49:07.739Z,40.53
2023-04-23T09:51:41.186Z,39.47
2023-04-23T09:54:11.864Z,40.86
2023-04-23T09:56:38.381Z,39.72
2023-04-23T09:59:35.948Z,39.44
2023-04-23T10:02:12.118Z,39.07
2023-04-23T10:04:39.822Z,41.31
2023-04-23T10:07:18.743Z,38.77
2023-04-23T10:09:46.785Z,39.83
2023-04-23T10:12:28.976Z,36.97
2023-04-23T10:15:00.273Z,35.53
2023-04-23T10:17:26.924Z,34.75
2023-04-23T10:19:55.271Z,38.00
2023-04-23T10:22:21.845Z,36.88
2023-04-23T10:24:52.028Z,38.20
2023-04-23T10:29:49.148Z,36.29
2023-04-23T10:32:15.942Z,35.11
2023-04-23T10:34:42.511Z,35.36
2023-04-23T10:37:09.363Z,33.97
2023-04-23T10:39:36.240Z,34.71
2023-04-23T10:42:03.853Z,35.70
2023-04-23T10:44:56.531Z,35.14
2023-04-23T10:47:22.517Z,36.22
2023-04-23T10:49:49.022Z,35.15
2023-04-23T10:52:20.003Z,34.23
2023-04-23T10:54:49.041Z,34.21
2023-04-23T10:57:15.502Z,35.51
2023-04-23T10:59:51.935Z,34.45
2023-04-23T11:02:18.435Z,33.17
2023-04-23T11:04:46.587Z,34.05
2023-04-23T11:07:13.654Z,35.05
2023-04-23T11:09:40.328Z,34.08
2023-04-23T11:12:08.294Z,35.75
2023-04-23T11:14:38.585Z,34.71
2023-04-23T11:17:06.725Z,35.71
2023-04-23T11:19:37.026Z,34.65
2023-04-23T11:22:03.505Z,34.99
2023-04-23T11:24:30.908Z,36.36
2023-04-23T11:26:57.814Z,35.30
2023-04-23T11:29:25.009Z,35.85
2023-04-23T11:32:01.863Z,34.45
2023-04-23T11:34:30.101Z,34.32
2023-04-23T11:36:58.395Z,35.42
2023-04-23T11:39:25.580Z,36.65
2023-04-23T11:41:52.455Z,35.97
2023-04-23T11:44:20.788Z,35.36
2023-04-23T11:46:48.516Z,34.85
2023-04-23T11:49:15.716Z,34.25
2023-04-23T11:51:45.807Z,33.49
2023-04-23T11:54:13.585Z,35.88
2023-04-23T11:56:40.692Z,35.41
2023-04-23T11:59:07.314Z,34.44
2023-04-23T12:01:43.659Z,35.30
2023-04-23T12:04:20.310Z,34.42
2023-04-23T12:06:47.608Z,34.36
2023-04-23T12:09:15.135Z,35.22
2023-04-23T12:11:42.447Z,36.14
2023-04-23T12:14:10.293Z,35.38
2023-04-23T12:16:41.038Z,34.42
2023-04-23T12:19:13.488Z,34.70
2023-04-23T12:21:55.645Z,35.65
2023-04-23T12:24:26.489Z,34.51
2023-04-23T12:26:54.551Z,35.28
2023-04-23T12:29:24.823Z,33.87
2023-04-23T12:31:54.759Z,33.58
2023-04-23T12:34:21.595Z,32.62
2023-04-23T12:36:49.282Z,31.83
2023-04-23T12:39:32.212Z,32.12
2023-04-23T12:42:04.796Z,31.01
2023-04-23T12:44:32.142Z,32.95
2023-04-23T12:46:59.882Z,33.26
2023-04-23T12:49:29.886Z,32.24
2023-04-23T12:52:02.951Z,32.04
2023-04-23T12:54:38.972Z,33.22
2023-04-23T12:57:06.476Z,32.28
2023-04-23T12:59:33.192Z,31.66
2023-04-23T13:02:03.708Z,32.59
2023-04-23T13:04:31.296Z,33.43
2023-04-23T13:06:57.775Z,32.10
2023-04-23T13:09:26.779Z,31.87
2023-04-23T13:11:54.018Z,32.25
2023-04-23T13:14:21.278Z,31.89
2023-04-23T13:16:47.829Z,32.40
2023-04-23T13:19:14.365Z,34.66
2023-04-23T13:21:40.817Z,32.70
2023-04-23T13:24:07.312Z,31.39
2023-04-23T13:26:34.108Z,32.72
2023-04-23T13:29:01.099Z,33.33
2023-04-23T13:31:28.228Z,33.70
2023-04-23T13:33:55.225Z,33.40
2023-04-23T13:36:22.281Z,34.49
2023-04-23T13:38:48.826Z,32.79
2023-04-23T13:41:15.251Z,33.46
2023-04-23T13:43:41.772Z,34.67
2023-04-23T13:46:08.626Z,35.60
2023-04-23T13:48:35.093Z,35.93
2023-04-23T13:51:01.739Z,36.34
2023-04-23T13:53:28.487Z,36.53
2023-04-23T13:55:56.141Z,36.49
2023-04-23T13:58:23.441Z,35.79
2023-04-23T14:00:50.216Z,37.14
2023-04-23T14:03:17.023Z,36.66
2023-04-23T14:05:43.637Z,36.06
2023-04-23T14:08:10.147Z,35.28
2023-04-23T14:10:36.750Z,34.92
2023-04-23T14:13:04.504Z,35.33
2023-04-23T14:15:31.092Z,34.79
2023-04-23T14:17:59.827Z,34.90
2023-04-23T14:20:26.454Z,37.36
2023-04-23T14:22:57.102Z,36.37
2023-04-23T14:25:24.879Z,35.78
2023-04-23T14:27:51.596Z,37.24
2023-04-23T14:30:21.380Z,36.75
2023-04-23T14:32:50.026Z,36.27
2023-04-23T14:35:17.404Z,37.31
2023-04-23T14:37:45.419Z,36.37
2023-04-23T14:40:21.509Z,37.31
2023-04-23T14:42:48.916Z,37.38
2023-04-23T14:45:16.287Z,38.29
2023-04-23T14:47:47.782Z,38.76
2023-04-23T14:50:15.402Z,39.57
2023-04-23T14:52:43.808Z,38.32
2023-04-23T14:55:11.152Z,38.90
2023-04-23T14:57:37.730Z,38.51
2023-04-23T15:00:05.015Z,38.38
2023-04-23T15:02:31.540Z,39.62
2023-04-23T15:04:58.095Z,38.77
2023-04-23T15:07:24.592Z,41.52
2023-04-23T15:09:51.228Z,41.66
2023-04-23T15:12:36.336Z,41.84
2023-04-23T15:15:06.473Z,41.98
2023-04-23T15:17:33.194Z,42.17
2023-04-23T15:20:00.662Z,42.42
2023-04-23T15:22:27.278Z,43.31
2023-04-23T15:24:53.697Z,42.64
2023-04-23T15:27:21.982Z,42.83
2023-04-23T15:29:49.297Z,42.64
2023-04-23T15:32:16.550Z,42.37
2023-04-23T15:34:42.969Z,42.66
2023-04-23T15:37:09.680Z,43.81
2023-04-23T15:39:36.165Z,43.55
2023-04-23T15:42:03.300Z,42.53
2023-04-23T15:44:29.758Z,42.13
2023-04-23T15:46:56.183Z,42.61
2023-04-23T15:49:22.639Z,43.82
2023-04-23T15:51:49.119Z,43.62
2023-04-23T15:54:15.585Z,43.86
2023-04-23T15:56:42.003Z,44.45
2023-04-23T15:59:08.449Z,44.38
2023-04-23T16:01:36.003Z,44.28
2023-04-23T16:06:32.101Z,44.54
2023-04-23T16:08:58.602Z,45.90
2023-04-23T16:11:27.700Z,45.23
2023-04-23T16:13:54.248Z,45.50
2023-04-23T16:16:20.819Z,45.49
2023-04-23T16:18:47.414Z,45.76
2023-04-23T16:21:13.896Z,45.72
2023-04-23T16:23:40.491Z,46.36
2023-04-23T16:26:08.723Z,46.39
2023-04-23T16:28:35.449Z,46.90
2023-04-23T16:31:01.973Z,47.70
2023-04-23T16:33:30.296Z,48.25
2023-04-23T16:35:59.868Z,49.75
2023-04-23T16:38:26.354Z,51.08
2023-04-23T16:40:52.861Z,52.76
2023-04-23T16:43:19.325Z,53.09
2023-04-23T16:45:45.975Z,53.03
2023-04-23T16:48:16.408Z,52.92
2023-04-23T16:50:44.266Z,53.54
2023-04-23T16:53:10.783Z,61.01
2023-04-23T16:55:38.168Z,66.13
2023-04-23T16:58:04.922Z,64.12
2023-04-23T17:00:31.574Z,61.73
2023-04-23T17:02:58.214Z,64.13
2023-04-23T17:05:25.350Z,61.27
2023-04-23T17:07:52.762Z,63.18
2023-04-23T17:10:19.465Z,66.69
2023-04-23T17:12:45.993Z,65.92
2023-04-23T17:15:12.496Z,66.13
2023-04-23T17:17:38.988Z,65.87
2023-04-23T17:20:06.978Z,68.02
2023-04-23T17:22:33.899Z,67.05
2023-04-23T17:25:00.543Z,67.27
2023-04-23T17:27:26.992Z,69.40
2023-04-23T17:29:53.443Z,72.21
2023-04-23T17:32:19.924Z,73.72
2023-04-23T17:34:49.535Z,76.00
2023-04-23T17:37:21.677Z,78.59
2023-04-23T17:39:48.225Z,79.60
2023-04-23T17:42:14.721Z,78.86
2023-04-23T17:44:41.723Z,81.05
2023-04-23T17:47:10.201Z,81.22
2023-04-23T17:49:36.697Z,79.00
2023-04-23T17:52:03.479Z,80.52
2023-04-23T17:54:29.913Z,82.21
2023-04-23T17:56:56.355Z,82.24
2023-04-23T17:59:22.892Z,81.50
2023-04-23T18:01:49.332Z,79.11
2023-04-23T18:04:17.632Z,80.73
2023-04-23T18:06:44.393Z,80.10
2023-04-23T18:09:10.942Z,80.61
2023-04-23T18:11:37.752Z,82.26
2023-04-23T18:14:04.197Z,80.55
2023-04-23T18:16:30.733Z,80.71
2023-04-23T18:18:57.158Z,81.08
2023-04-23T18:21:23.823Z,80.44
2023-04-23T18:23:50.384Z,81.23
2023-04-23T18:26:16.902Z,80.71
2023-04-23T18:28:43.414Z,81.87
2023-04-23T18:31:10.101Z,83.81
2023-04-23T18:33:41.535Z,84.39
2023-04-23T18:36:17.436Z,83.34
2023-04-23T18:38:47.227Z,83.94
2023-04-23T18:41:13.716Z,83.59
2023-04-23T18:43:40.317Z,83.76
2023-04-23T18:46:06.908Z,83.14
2023-04-23T18:48:33.320Z,82.91
2023-04-23T18:51:08.761Z,84.32
2023-04-23T18:53:37.172Z,83.72
2023-04-23T18:56:03.633Z,82.88
2023-04-23T18:58:30.766Z,82.17
2023-04-23T19:00:57.474Z,80.86
2023-04-23T19:03:27.266Z,79.91
2023-04-23T19:05:54.003Z,78.66
2023-04-23T19:08:21.166Z,75.68
2023-04-23T19:10:47.660Z,77.08
2023-04-23T19:13:14.096Z,78.50
2023-04-23T19:15:40.930Z,78.86
2023-04-23T19:18:07.508Z,79.63
2023-04-23T19:20:34.004Z,79.10
2023-04-23T19:23:00.468Z,79.14
2023-04-23T19:25:26.929Z,81.62
2023-04-23T19:27:53.381Z,80.52
2023-04-23T19:30:19.870Z,80.82
2023-04-23T19:32:46.358Z,82.90
2023-04-23T19:35:13.548Z,84.10
2023-04-23T19:37:40.082Z,84.59
2023-04-23T19:40:07.009Z,84.41
2023-04-23T19:42:33.524Z,85.35
2023-04-23T19:44:59.955Z,85.89
2023-04-23T19:47:26.437Z,86.62
2023-04-23T19:49:52.940Z,88.60
2023-04-23T19:52:23.998Z,88.12
2023-04-23T19:54:50.584Z,88.55
2023-04-23T19:57:22.173Z,89.22
2023-04-23T19:59:49.174Z,91.27
2023-04-23T20:02:16.641Z,91.62
2023-04-23T20:04:43.260Z,90.39
2023-04-23T20:07:09.953Z,90.52
2023-04-23T20:09:36.393Z,90.43
2023-04-23T20:12:03.029Z,91.97
2023-04-23T20:14:29.953Z,92.63
2023-04-23T20:16:56.815Z,92.22
2023-04-23T20:19:25.769Z,91.11
2023-04-23T20:21:52.576Z,91.27
2023-04-23T20:24:21.322Z,92.76
2023-04-23T20:26:48.236Z,93.91
2023-04-23T20:29:14.786Z,94.30
2023-04-23T20:31:41.767Z,93.35
2023-04-23T20:34:08.391Z,93.90
2023-04-23T20:36:35.761Z,93.07
2023-04-23T20:39:05.248Z,93.39
2023-04-23T20:41:32.700Z,92.68
2023-04-23T20:43:59.334Z,91.59
2023-04-23T20:46:26.274Z,92.18
2023-04-23T20:48:55.952Z,93.40
2023-04-23T20:51:23.248Z,90.07
2023-04-23T20:53:49.958Z,92.88
2023-04-23T20:56:16.573Z,94.32
2023-04-23T20:58:43.069Z,93.97
2023-04-23T21:01:11.473Z,93.53
2023-04-23T21:03:39.035Z,93.69
2023-04-23T21:06:06.740Z,93.75
2023-04-23T21:08:33.411Z,93.85
2023-04-23T21:10:59.885Z,95.73
2023-04-23T21:13:26.470Z,94.92
2023-04-23T21:15:53.322Z,94.18
2023-04-23T21:18:19.806Z,94.00
2023-04-23T21:20:46.285Z,93.50
2023-04-23T21:23:12.711Z,94.56
2023-04-23T21:25:39.536Z,94.57
2023-04-23T21:28:06.500Z,94.04
2023-04-23T21:30:38.936Z,94.46
2023-04-23T21:33:05.557Z,95.06
2023-04-23T21:35:32.169Z,95.21
2023-04-23T21:37:58.657Z,95.09
2023-04-23T21:40:25.139Z,94.94
2023-04-23T21:42:51.675Z,95.70
2023-04-23T21:45:18.214Z,95.85
2023-04-23T21:47:44.823Z,96.14
2023-04-23T21:50:11.640Z,95.68
2023-04-23T21:52:38.109Z,95.88
2023-04-23T21:55:05.153Z,96.77
2023-04-23T21:57:31.676Z,97.88
2023-04-23T21:59:58.122Z,97.06
2023-04-23T22:02:24.911Z,96.53
2023-04-23T22:04:51.424Z,96.35
2023-04-23T22:07:18.140Z,96.57
2023-04-23T22:09:44.767Z,96.37
2023-04-23T22:12:11.832Z,96.25
2023-04-23T22:14:38.270Z,96.22
2023-04-23T22:17:05.012Z,96.85
2023-04-23T22:19:31.545Z,97.11
2023-04-23T22:21:57.990Z,99.53
2023-04-23T22:24:24.642Z,98.69
2023-04-23T22:26:51.108Z,98.53
2023-04-23T22:29:17.569Z,96.24
2023-04-23T22:31:44.071Z,96.00
2023-04-23T22:34:10.565Z,98.27
2023-04-23T22:36:37.115Z,99.69
2023-04-23T22:39:05.773Z,95.47
2023-04-23T22:41:33.740Z,99.07
2023-04-23T22:44:00.801Z,99.02
2023-04-23T22:46:28.015Z,98.55
2023-04-23T22:48:54.700Z,94.92
2023-04-23T22:51:21.210Z,96.55
2023-04-23T22:53:47.656Z,96.99
2023-04-23T22:56:14.149Z,97.37
2023-04-23T22:58:40.607Z,96.49
2023-04-23T23:01:07.173Z,96.79
2023-04-23T23:03:33.770Z,96.60
2023-04-23T23:06:00.324Z,95.84
2023-04-23T23:08:26.895Z,97.68
2023-04-23T23:10:53.361Z,97.85
2023-04-23T23:13:19.846Z,97.35
2023-04-23T23:15:46.754Z,99.12
2023-04-23T23:18:13.451Z,99.22
2023-04-23T23:20:41.024Z,99.36
2023-04-23T23:23:07.505Z,100.00
2023-04-23T23:25:38.167Z,100.00
2023-04-23T23:28:05.096Z,99.84
2023-04-23T23:30:31.604Z,100.00
2023-04-23T23:32:58.161Z,99.42
2023-04-23T23:35:24.626Z,99.15
2023-04-23T23:37:51.212Z,99.41
2023-04-23T23:40:17.704Z,99.13
2023-04-23T23:42:44.188Z,98.61
2023-04-23T23:45:10.972Z,99.02
2023-04-23T23:47:37.491Z,98.46
2023-04-23T23:50:04.105Z,98.16
2023-04-23T23:52:30.682Z,98.52
2023-04-23T23:54:57.301Z,99.33
2023-04-23T23:57:23.760Z,98.72
2023-04-23T23:59:50.508Z,99.83
